Time;durP1;ratioP1;P1;durP2;ratioP2;P2;SDS_P1;SDS_P2;PMS_P1;PMS_P2;Temp;Humidity;BMP_temperature;BMP_pressure;BME280_temperature;BME280_humidity;BME280_pressure;Samples;Min_cycle;Max_cycle;Signal;HPM_P1;HPM_P2
2024/02/07 00:01:14;;;;;;;5.90;2.30;;;6.40;1.10;;;;;;4955837;29;20279;-69
2024/02/07 00:03:40;;;;;;;4.53;1.90;;;6.40;1.00;;;;;;4956791;28;20867;-69
2024/02/07 00:06:05;;;;;;;2.40;1.40;;;6.50;1.00;;;;;;4956677;29;20182;-70
2024/02/07 00:08:31;;;;;;;3.40;1.90;;;6.50;1.00;;;;;;4956405;29;20179;-68
2024/02/07 00:10:57;;;;;;;2.97;1.40;;;6.50;1.00;;;;;;4956501;29;20180;-69
2024/02/07 00:13:23;;;;;;;6.10;1.93;;;6.50;1.00;;;;;;4956631;29;20258;-69
2024/02/07 00:15:48;;;;;;;3.40;2.00;;;6.50;1.00;;;;;;4956855;29;20472;-70
2024/02/07 00:18:14;;;;;;;4.00;2.10;;;6.50;1.00;;;;;;4956306;29;20430;-69
2024/02/07 00:20:40;;;;;;;3.97;1.07;;;6.40;1.00;;;;;;4955014;28;20183;-69
2024/02/07 00:23:07;;;;;;;3.10;2.10;;;6.50;1.00;;;;;;4956509;28;20190;-68
2024/02/07 00:25:33;;;;;;;3.43;2.77;;;6.50;1.00;;;;;;4954907;29;20222;-69
2024/02/07 00:27:59;;;;;;;5.20;1.97;;;6.70;1.00;;;;;;4956218;28;20495;-69
2024/02/07 00:30:24;;;;;;;2.43;1.43;;;6.80;1.00;;;;;;4956286;29;21156;-69
2024/02/07 00:32:50;;;;;;;10.57;2.63;;;6.70;1.00;;;;;;4956191;28;20674;-69
2024/02/07 00:35:16;;;;;;;2.60;1.30;;;6.70;1.00;;;;;;4956175;29;20299;-69
2024/02/07 00:37:41;;;;;;;3.53;2.27;;;6.70;1.00;;;;;;4954619;29;20182;-69
2024/02/07 00:40:10;;;;;;;2.83;1.87;;;6.70;1.00;;;;;;4956225;28;20414;-69
2024/02/07 00:42:36;;;;;;;4.83;2.00;;;6.90;1.00;;;;;;4955991;28;20599;-69
2024/02/07 00:45:03;;;;;;;3.10;1.40;;;6.90;1.00;;;;;;4955983;28;20440;-69
2024/02/07 00:47:28;;;;;;;3.20;1.80;;;6.90;1.00;;;;;;4955803;28;20416;-69
2024/02/07 00:49:54;;;;;;;3.70;1.60;;;7.00;1.00;;;;;;4956319;28;20424;-68
2024/02/07 00:52:21;;;;;;;2.37;1.30;;;6.90;1.00;;;;;;4957632;29;20234;-70
2024/02/07 00:54:46;;;;;;;3.97;1.80;;;6.90;1.00;;;;;;4955202;29;20208;-69
2024/02/07 00:57:12;;;;;;;4.20;1.80;;;6.90;1.00;;;;;;4955858;29;20474;-69
2024/02/07 00:59:37;;;;;;;3.23;1.60;;;6.80;1.00;;;;;;4955599;28;20396;-69
2024/02/07 01:02:03;;;;;;;3.00;1.67;;;6.90;1.00;;;;;;4956011;28;20662;-69
2024/02/07 01:04:29;;;;;;;5.13;1.43;;;6.90;1.00;;;;;;4955915;29;20204;-69
2024/02/07 01:06:54;;;;;;;3.07;2.07;;;6.90;1.00;;;;;;4955638;29;20524;-69
2024/02/07 01:09:21;;;;;;;7.90;1.60;;;6.90;1.00;;;;;;4955630;29;20184;-68
2024/02/07 01:11:47;;;;;;;2.77;1.37;;;7.00;1.00;;;;;;4955740;28;20236;-69
2024/02/07 01:14:13;;;;;;;4.00;2.10;;;7.00;1.00;;;;;;4956040;29;20464;-69
2024/02/07 01:16:38;;;;;;;2.27;1.43;;;7.00;1.00;;;;;;4956196;29;20808;-69
2024/02/07 01:19:04;;;;;;;3.53;2.03;;;7.20;1.00;;;;;;4956324;28;20468;-70
2024/02/07 01:21:30;;;;;;;2.90;2.20;;;7.20;1.00;;;;;;4956097;28;20180;-69
2024/02/07 01:23:56;;;;;;;2.33;1.50;;;7.20;1.00;;;;;;4956099;29;20510;-69
2024/02/07 01:26:21;;;;;;;3.60;1.40;;;7.20;1.00;;;;;;4955814;29;20189;-69
2024/02/07 01:28:47;;;;;;;3.90;1.73;;;7.10;1.00;;;;;;4955486;28;20591;-68
2024/02/07 01:31:13;;;;;;;3.67;1.60;;;7.20;1.00;;;;;;4953982;29;20229;-69
2024/02/07 01:33:39;;;;;;;5.37;1.53;;;7.10;1.00;;;;;;4954963;28;20421;-69
2024/02/07 01:36:06;;;;;;;3.40;1.63;;;7.20;1.00;;;;;;4954947;29;20231;-68
2024/02/07 01:38:32;;;;;;;4.43;1.70;;;7.20;1.00;;;;;;4955368;29;20173;-69
2024/02/07 01:40:57;;;;;;;3.20;1.30;;;7.20;1.00;;;;;;4954981;28;20482;-68
2024/02/07 01:43:33;;;;;;;2.13;1.50;;;7.30;1.00;;;;;;4953841;28;20785;-68
2024/02/07 01:46:00;;;;;;;3.50;1.90;;;7.50;1.00;;;;;;4955620;28;20186;-69
2024/02/07 01:48:27;;;;;;;4.93;1.70;;;7.40;1.00;;;;;;4955131;28;20475;-68
2024/02/07 01:50:54;;;;;;;5.20;2.30;;;7.40;1.00;;;;;;4955022;28;20426;-69
2024/02/07 01:53:21;;;;;;;3.73;2.17;;;7.40;1.00;;;;;;4954860;28;20442;-69
2024/02/07 01:55:49;;;;;;;3.87;1.40;;;7.30;1.00;;;;;;4954693;28;20480;-68
2024/02/07 01:58:16;;;;;;;9.47;2.50;;;7.30;1.00;;;;;;4953285;29;20471;-69
2024/02/07 02:00:42;;;;;;;2.87;1.40;;;7.40;1.00;;;;;;4955225;28;20912;-69
2024/02/07 02:03:08;;;;;;;3.20;2.10;;;7.60;1.00;;;;;;4954819;28;20503;-69
2024/02/07 02:05:33;;;;;;;4.93;2.23;;;7.60;1.00;;;;;;4954670;28;20443;-68
2024/02/07 02:08:02;;;;;;;3.80;1.83;;;7.50;1.00;;;;;;4954451;28;20423;-68
2024/02/07 02:10:28;;;;;;;3.00;1.70;;;7.60;1.00;;;;;;4954522;28;20670;-68
2024/02/07 02:12:54;;;;;;;3.90;1.97;;;7.70;1.00;;;;;;4954583;29;20425;-69
2024/02/07 02:15:19;;;;;;;4.97;2.60;;;7.70;1.00;;;;;;4954299;29;20223;-69
2024/02/07 02:17:45;;;;;;;3.43;1.73;;;7.90;1.00;;;;;;4953139;28;20455;-69
2024/02/07 02:20:11;;;;;;;4.80;2.03;;;8.10;1.00;;;;;;4953047;29;20186;-68
2024/02/07 02:23:01;;;;;;;3.17;1.53;;;8.10;1.00;;;;;;4954254;29;20185;-68
2024/02/07 02:25:48;;;;;;;7.00;2.20;;;8.30;1.00;;;;;;4954386;29;20452;-68
2024/02/07 02:28:32;;;;;;;2.80;1.43;;;8.30;1.00;;;;;;4952656;28;20825;-69
2024/02/07 02:31:06;;;;;;;10.57;1.83;;;8.30;1.00;;;;;;4953030;29;20423;-70
2024/02/07 02:33:34;;;;;;;3.40;1.73;;;8.40;1.00;;;;;;4954402;28;20787;-69
2024/02/07 02:36:01;;;;;;;2.57;2.00;;;8.50;1.00;;;;;;4953911;29;20519;-70
2024/02/07 02:38:27;;;;;;;2.43;1.30;;;8.50;1.00;;;;;;4953916;28;20452;-69
2024/02/07 02:40:54;;;;;;;2.70;1.80;;;8.50;1.00;;;;;;4954075;29;20766;-67
2024/02/07 02:43:23;;;;;;;3.57;2.37;;;8.50;1.00;;;;;;4954010;29;20409;-68
2024/02/07 02:45:49;;;;;;;7.20;2.60;;;8.50;1.00;;;;;;4953888;29;20456;-68
2024/02/07 02:48:15;;;;;;;10.03;2.47;;;8.50;1.00;;;;;;4953763;28;20413;-69
2024/02/07 02:50:40;;;;;;;2.50;1.80;;;8.50;1.00;;;;;;4953698;29;20421;-69
2024/02/07 02:53:06;;;;;;;2.90;1.60;;;8.50;1.00;;;;;;4952472;29;20550;-68
2024/02/07 02:55:32;;;;;;;5.00;1.60;;;8.40;1.00;;;;;;4953654;28;20214;-69
2024/02/07 02:58:00;;;;;;;3.33;1.53;;;8.40;1.00;;;;;;4953542;29;20410;-69
2024/02/07 03:00:27;;;;;;;2.63;1.33;;;8.30;1.00;;;;;;4953795;29;20272;-70
2024/02/07 03:02:55;;;;;;;3.30;1.93;;;8.30;1.00;;;;;;4953785;29;20508;-69
2024/02/07 03:10:36;;;;;;;2.73;1.63;;;8.20;1.00;;;;;;4953822;29;20925;-68
2024/02/07 03:13:02;;;;;;;2.90;2.20;;;8.20;1.00;;;;;;4953459;29;20427;-67
2024/02/07 03:15:28;;;;;;;3.20;1.80;;;8.10;1.00;;;;;;4953605;29;21143;-67
2024/02/07 03:17:54;;;;;;;9.93;2.23;;;8.10;1.00;;;;;;4953223;29;20448;-71
2024/02/07 03:20:20;;;;;;;7.00;2.50;;;8.00;1.00;;;;;;4953366;29;20417;-69
2024/02/07 03:22:46;;;;;;;2.97;1.40;;;7.90;1.00;;;;;;4951861;28;20932;-69
2024/02/07 03:25:16;;;;;;;5.83;2.20;;;7.90;1.00;;;;;;4953571;29;20205;-70
2024/02/07 03:27:44;;;;;;;4.70;2.10;;;7.80;1.00;;;;;;4953390;28;20834;-70
2024/02/07 03:30:11;;;;;;;6.13;2.20;;;7.70;1.00;;;;;;4953452;28;20421;-70
2024/02/07 03:32:38;;;;;;;7.10;2.13;;;7.70;1.00;;;;;;4953475;29;20472;-70
2024/02/07 03:35:04;;;;;;;3.47;1.90;;;7.80;1.00;;;;;;4953471;29;20987;-70
2024/02/07 03:37:29;;;;;;;4.43;1.50;;;7.70;1.00;;;;;;4953569;29;20513;-70
2024/02/07 03:39:55;;;;;;;2.80;1.67;;;7.80;1.00;;;;;;4952458;29;20518;-70
2024/02/07 03:42:21;;;;;;;4.57;2.10;;;7.70;1.00;;;;;;4953481;28;20231;-70
2024/02/07 03:44:58;;;;;;;2.80;1.63;;;7.70;1.00;;;;;;4953504;29;20216;-69
2024/02/07 03:47:24;;;;;;;4.63;2.63;;;7.70;1.00;;;;;;4953850;29;20181;-70
2024/02/07 03:49:50;;;;;;;3.53;1.87;;;7.70;1.00;;;;;;4954005;29;20939;-70
2024/02/07 03:52:18;;;;;;;3.10;1.33;;;7.70;1.00;;;;;;4953951;29;20425;-70
2024/02/07 03:54:50;;;;;;;3.17;1.70;;;7.80;1.00;;;;;;4952533;28;20834;-70
2024/02/07 03:57:19;;;;;;;3.57;2.13;;;7.80;1.00;;;;;;4953207;28;20951;-70
2024/02/07 03:59:45;;;;;;;3.70;1.70;;;7.90;1.00;;;;;;4953353;29;20412;-71
2024/02/07 04:02:21;;;;;;;3.20;1.73;;;7.90;1.00;;;;;;4953284;29;20444;-70
2024/02/07 04:04:48;;;;;;;3.50;2.47;;;8.00;1.00;;;;;;4953443;29;20451;-70
2024/02/07 04:07:18;;;;;;;3.90;1.60;;;8.00;1.00;;;;;;4953093;28;20452;-69
2024/02/07 04:09:44;;;;;;;2.57;1.83;;;8.00;1.00;;;;;;4953201;29;20421;-69
2024/02/07 05:17:21;;;;;;;4.00;2.47;;;8.40;1.00;;;;;;4969862;28;20430;-68
2024/02/07 05:19:48;;;;;;;2.97;2.00;;;8.40;1.00;;;;;;4994780;28;20430;-68
2024/02/07 05:22:16;;;;;;;5.50;1.73;;;8.50;1.00;;;;;;4993670;28;20451;-70
2024/02/07 05:24:42;;;;;;;2.87;1.70;;;8.50;1.00;;;;;;4993440;28;20439;-69
2024/02/07 05:27:12;;;;;;;3.27;2.07;;;8.50;1.00;;;;;;4994603;28;20451;-69
2024/02/07 05:29:41;;;;;;;3.83;2.27;;;8.50;1.00;;;;;;4994580;28;20912;-69
2024/02/07 05:32:07;;;;;;;4.33;2.50;;;8.60;1.00;;;;;;4994393;28;20456;-68
2024/02/07 05:34:33;;;;;;;5.13;1.90;;;8.50;1.00;;;;;;4994342;28;20438;-69
2024/02/07 05:37:00;;;;;;;3.80;2.07;;;8.50;1.00;;;;;;4993109;28;20426;-68
2024/02/07 05:39:26;;;;;;;3.37;2.10;;;8.50;1.00;;;;;;4994496;28;20767;-69
2024/02/07 05:41:52;;;;;;;4.07;2.20;;;8.50;1.00;;;;;;4994805;28;20419;-70
2024/02/07 05:44:18;;;;;;;6.90;2.20;;;8.50;1.00;;;;;;4994063;28;20196;-69
2024/02/07 05:46:43;;;;;;;2.80;1.73;;;8.50;1.00;;;;;;4994245;28;20427;-70
2024/02/07 05:49:13;;;;;;;4.03;2.00;;;8.50;1.00;;;;;;4994696;28;20574;-69
2024/02/07 05:51:39;;;;;;;4.27;2.43;;;8.60;1.00;;;;;;4995166;28;20270;-70
2024/02/07 05:54:05;;;;;;;3.07;1.80;;;8.50;1.00;;;;;;4994025;28;20452;-70
2024/02/07 05:56:31;;;;;;;4.10;2.10;;;8.50;1.00;;;;;;4993408;28;20454;-70
2024/02/07 05:58:57;;;;;;;5.03;2.87;;;8.50;1.00;;;;;;4994218;28;20899;-68
2024/02/07 06:01:22;;;;;;;3.47;1.70;;;8.50;1.00;;;;;;4993633;28;20178;-70
2024/02/07 06:03:52;;;;;;;3.23;2.67;;;8.50;1.00;;;;;;4993672;28;20196;-71
2024/02/07 06:06:18;;;;;;;3.53;1.30;;;8.60;1.00;;;;;;4993875;28;20196;-70
2024/02/07 06:08:47;;;;;;;5.53;2.30;;;8.60;1.00;;;;;;4993347;28;20420;-71
2024/02/07 06:11:15;;;;;;;8.43;2.33;;;8.60;1.00;;;;;;4992473;28;20579;-71
2024/02/07 06:13:41;;;;;;;5.27;2.80;;;8.60;1.00;;;;;;4993079;28;20924;-70
2024/02/07 06:16:07;;;;;;;2.67;1.93;;;8.70;1.00;;;;;;4993174;28;20520;-70
2024/02/07 06:18:35;;;;;;;3.70;1.67;;;8.70;1.00;;;;;;4984604;28;20783;-70
2024/02/07 06:21:03;;;;;;;3.53;2.40;;;8.70;1.00;;;;;;4973880;28;20181;-69
2024/02/07 06:23:29;;;;;;;3.50;2.43;;;8.70;1.00;;;;;;4973498;28;20420;-70
2024/02/07 06:25:54;;;;;;;4.13;2.17;;;8.80;1.00;;;;;;4973828;28;20428;-69
2024/02/07 06:28:20;;;;;;;3.03;2.13;;;8.70;1.00;;;;;;4973483;28;20768;-70
2024/02/07 06:30:47;;;;;;;4.23;1.83;;;8.70;1.00;;;;;;4972335;28;20173;-69
2024/02/07 06:33:13;;;;;;;4.13;2.00;;;8.80;1.00;;;;;;4973495;28;20183;-72
2024/02/07 06:35:39;;;;;;;3.57;1.63;;;8.80;1.00;;;;;;4973337;28;21085;-69
2024/02/07 06:38:04;;;;;;;3.50;1.70;;;8.80;1.00;;;;;;4973168;28;20191;-69
2024/02/07 06:40:30;;;;;;;10.00;2.40;;;8.70;1.00;;;;;;4967929;28;20346;-70
2024/02/07 06:42:56;;;;;;;4.60;2.30;;;8.70;1.00;;;;;;4969297;28;20188;-69
2024/02/07 06:45:21;;;;;;;3.10;1.90;;;8.70;1.00;;;;;;4970957;28;20209;-70
2024/02/07 06:47:47;;;;;;;2.90;1.80;;;8.70;1.00;;;;;;4970976;28;20967;-69
2024/02/07 06:50:13;;;;;;;5.40;1.90;;;8.70;1.00;;;;;;4972183;28;20188;-69
2024/02/07 06:52:39;;;;;;;2.67;1.83;;;8.70;1.00;;;;;;4972693;28;20574;-68
2024/02/07 06:55:05;;;;;;;6.50;2.63;;;8.70;1.00;;;;;;4968170;28;20215;-68
2024/02/07 06:57:31;;;;;;;3.50;1.83;;;8.70;1.00;;;;;;4970888;28;20424;-68
2024/02/07 06:59:56;;;;;;;4.73;2.03;;;8.70;1.00;;;;;;4973097;28;20188;-68
2024/02/07 07:02:22;;;;;;;6.10;2.13;;;8.70;1.00;;;;;;4971739;28;20328;-68
2024/02/07 07:04:48;;;;;;;3.03;2.20;;;8.70;1.00;;;;;;4971085;28;20657;-68
2024/02/07 07:07:14;;;;;;;8.23;2.20;;;8.80;1.00;;;;;;4971484;28;20189;-69
2024/02/07 07:09:39;;;;;;;4.03;1.97;;;8.80;1.00;;;;;;4972780;28;20840;-68
2024/02/07 07:12:05;;;;;;;4.73;3.13;;;8.80;1.00;;;;;;4973120;28;20196;-69
2024/02/07 07:14:31;;;;;;;6.80;2.10;;;8.80;1.00;;;;;;4972462;28;20232;-69
2024/02/07 07:16:56;;;;;;;3.70;2.00;;;8.80;1.00;;;;;;4971935;28;20266;-69
2024/02/07 07:19:23;;;;;;;5.50;2.50;;;8.80;1.00;;;;;;4972248;28;20204;-69
2024/02/07 07:21:48;;;;;;;5.97;2.50;;;8.90;1.00;;;;;;4972658;28;20547;-69
2024/02/07 07:24:14;;;;;;;4.57;2.53;;;8.90;1.00;;;;;;4970371;28;20215;-69
2024/02/07 07:26:39;;;;;;;2.83;1.73;;;8.90;1.00;;;;;;4971635;28;20195;-69
2024/02/07 07:29:05;;;;;;;14.10;3.13;;;8.90;1.00;;;;;;4971507;28;20192;-69
2024/02/07 07:31:34;;;;;;;9.63;3.53;;;8.90;1.00;;;;;;4970893;28;20300;-69
2024/02/07 07:34:00;;;;;;;4.00;2.10;;;9.00;1.00;;;;;;4971137;28;20209;-69
2024/02/07 07:36:27;;;;;;;4.00;2.37;;;9.00;1.00;;;;;;4971906;28;20471;-68
2024/02/07 07:38:53;;;;;;;4.33;2.70;;;9.00;1.00;;;;;;4971319;28;20178;-69
2024/02/07 07:41:19;;;;;;;4.00;2.20;;;9.00;1.00;;;;;;4968483;28;20433;-69
2024/02/07 07:43:44;;;;;;;3.33;2.20;;;9.00;1.00;;;;;;4961329;28;20432;-69
2024/02/07 07:46:10;;;;;;;6.93;2.70;;;9.10;1.00;;;;;;4970479;28;20272;-67
2024/02/07 07:48:36;;;;;;;2.90;1.87;;;9.10;1.00;;;;;;4968205;28;20189;-68
2024/02/07 07:51:02;;;;;;;5.03;2.30;;;9.10;1.00;;;;;;4984991;28;20814;-69
2024/02/07 07:53:28;;;;;;;7.10;2.03;;;9.10;1.00;;;;;;4979925;28;20435;-69
2024/02/07 07:55:53;;;;;;;4.33;2.93;;;9.20;1.00;;;;;;4972845;28;20284;-67
2024/02/07 07:58:20;;;;;;;4.67;2.13;;;9.20;1.00;;;;;;4972824;28;20232;-68
2024/02/07 08:00:46;;;;;;;4.43;2.60;;;9.20;1.00;;;;;;4972815;28;20170;-68
2024/02/07 08:03:12;;;;;;;3.00;2.30;;;9.20;1.00;;;;;;4971937;28;20771;-70
2024/02/07 08:05:40;;;;;;;4.07;1.90;;;9.20;1.00;;;;;;4972854;28;20201;-68
2024/02/07 08:08:08;;;;;;;9.70;2.60;;;9.30;1.00;;;;;;4973286;28;20185;-68
2024/02/07 08:10:35;;;;;;;7.23;2.80;;;9.20;1.00;;;;;;4975242;28;20511;-69
2024/02/07 08:13:01;;;;;;;3.63;2.53;;;9.20;1.00;;;;;;4975227;28;20444;-68
2024/02/07 08:15:26;;;;;;;6.77;2.90;;;9.30;1.00;;;;;;4976280;28;20476;-69
2024/02/07 08:17:52;;;;;;;4.50;2.03;;;9.20;1.00;;;;;;4976463;28;20671;-69
2024/02/07 08:20:22;;;;;;;6.83;2.80;;;9.20;1.00;;;;;;4975113;28;20184;-68
2024/02/07 08:22:48;;;;;;;4.23;2.10;;;9.20;1.00;;;;;;4974837;28;20181;-68
2024/02/07 08:25:13;;;;;;;3.57;2.10;;;9.20;1.00;;;;;;4975961;28;20490;-68
2024/02/07 08:27:42;;;;;;;4.20;2.40;;;9.20;1.00;;;;;;4974778;28;20428;-69
2024/02/07 08:30:08;;;;;;;5.73;2.30;;;9.20;1.00;;;;;;4975987;28;20185;-69
2024/02/07 08:32:34;;;;;;;5.67;2.27;;;9.20;1.00;;;;;;4975089;28;20440;-69
2024/02/07 08:35:00;;;;;;;5.80;2.80;;;9.20;1.00;;;;;;4976004;28;20460;-69
2024/02/07 08:37:28;;;;;;;4.30;2.90;;;9.20;1.00;;;;;;4974404;28;20200;-69
2024/02/07 08:39:54;;;;;;;6.90;2.17;;;9.20;1.00;;;;;;4975919;28;20187;-69
2024/02/07 08:42:19;;;;;;;4.70;2.63;;;9.20;1.00;;;;;;4976215;28;20495;-69
2024/02/07 08:44:45;;;;;;;5.43;3.30;;;9.20;1.00;;;;;;4974703;28;20308;-68
2024/02/07 08:47:11;;;;;;;5.87;1.80;;;9.20;1.00;;;;;;4975797;28;20721;-69
2024/02/07 08:49:37;;;;;;;5.43;2.70;;;9.20;1.00;;;;;;4975824;28;20177;-70
2024/02/07 08:52:02;;;;;;;3.90;2.53;;;9.20;1.00;;;;;;4975863;28;20224;-69
2024/02/07 08:54:28;;;;;;;3.87;2.50;;;9.20;1.00;;;;;;4975301;28;20596;-69
2024/02/07 08:56:53;;;;;;;4.73;2.30;;;9.30;1.00;;;;;;4974560;28;20256;-69
2024/02/07 08:59:19;;;;;;;4.57;2.30;;;9.40;1.00;;;;;;4974353;28;20177;-69
2024/02/07 09:01:44;;;;;;;3.53;2.03;;;9.50;1.00;;;;;;4975737;28;20177;-68
2024/02/07 09:04:10;;;;;;;7.47;2.70;;;9.50;1.00;;;;;;4975383;28;20194;-68
2024/02/07 09:06:36;;;;;;;5.60;2.20;;;9.60;1.00;;;;;;4975312;28;20190;-69
2024/02/07 09:09:02;;;;;;;2.83;1.93;;;9.70;1.00;;;;;;4974270;28;20244;-69
2024/02/07 09:11:28;;;;;;;4.50;2.40;;;9.80;1.00;;;;;;4975400;28;20648;-69
2024/02/07 09:13:54;;;;;;;3.53;2.10;;;9.80;1.00;;;;;;4975164;28;20483;-68
2024/02/07 09:16:19;;;;;;;4.43;2.03;;;10.00;1.00;;;;;;4968434;28;21020;-69
2024/02/07 09:18:45;;;;;;;4.50;2.50;;;10.20;1.00;;;;;;4970941;28;20406;-69
2024/02/07 09:21:11;;;;;;;3.40;2.33;;;10.30;1.00;;;;;;4970439;28;20177;-69
2024/02/07 09:23:36;;;;;;;5.10;2.40;;;10.30;1.00;;;;;;4972021;28;20178;-68
2024/02/07 09:26:04;;;;;;;3.80;2.20;;;10.60;1.00;;;;;;4971687;28;20276;-70
2024/02/07 09:28:29;;;;;;;5.83;3.43;;;10.80;1.00;;;;;;4970902;28;20184;-68
2024/02/07 09:30:55;;;;;;;3.70;2.23;;;10.90;1.00;;;;;;4972359;28;20430;-69
2024/02/07 09:33:21;;;;;;;5.53;2.53;;;10.80;1.00;;;;;;4970149;28;20213;-69
2024/02/07 09:35:47;;;;;;;5.73;2.00;;;10.60;1.00;;;;;;4971062;28;20220;-69
2024/02/07 09:38:15;;;;;;;4.20;2.40;;;10.70;1.00;;;;;;4971873;28;20429;-68
2024/02/07 09:40:41;;;;;;;2.63;1.60;;;10.80;1.00;;;;;;4971196;28;20260;-69
2024/02/07 09:43:08;;;;;;;4.40;2.43;;;10.90;1.00;;;;;;4969959;28;20508;-69
2024/02/07 09:45:35;;;;;;;6.60;2.90;;;10.90;1.00;;;;;;4970301;28;20211;-70
2024/02/07 09:48:17;;;;;;;3.23;1.73;;;11.00;1.00;;;;;;4970825;28;20520;-68
2024/02/07 09:50:44;;;;;;;2.30;1.50;;;11.10;1.00;;;;;;4971634;28;20479;-69
2024/02/07 09:53:12;;;;;;;3.30;2.40;;;11.20;1.00;;;;;;4970946;28;20949;-69
2024/02/07 09:55:38;;;;;;;2.97;1.90;;;11.10;1.00;;;;;;4970722;28;20469;-69
2024/02/07 09:58:06;;;;;;;9.77;3.00;;;11.00;1.00;;;;;;4970980;28;20427;-69
2024/02/07 10:00:32;;;;;;;3.13;2.00;;;11.00;1.00;;;;;;4970437;28;20583;-69
2024/02/07 10:02:58;;;;;;;5.10;2.00;;;11.10;1.00;;;;;;4970790;28;20459;-70
2024/02/07 10:05:29;;;;;;;4.53;2.50;;;11.00;1.00;;;;;;4980269;28;20205;-69
2024/02/07 10:07:55;;;;;;;4.67;2.00;;;11.20;1.00;;;;;;4993214;28;21113;-68
2024/02/07 10:10:21;;;;;;;2.63;1.80;;;11.30;1.00;;;;;;5001405;28;20416;-67
2024/02/07 10:12:47;;;;;;;2.93;2.00;;;11.30;1.00;;;;;;5000758;28;20692;-69
2024/02/07 10:15:13;;;;;;;3.80;1.70;;;11.30;1.00;;;;;;4996507;28;20476;-68
2024/02/07 10:17:38;;;;;;;3.17;1.90;;;11.40;1.00;;;;;;4992764;28;20187;-68
2024/02/07 10:20:11;;;;;;;3.00;2.13;;;11.50;1.00;;;;;;4990269;28;20438;-69
2024/02/07 10:22:40;;;;;;;7.13;2.27;;;11.50;1.00;;;;;;4987770;28;20193;-69
2024/02/07 10:25:11;;;;;;;4.67;1.97;;;11.50;1.00;;;;;;4951902;28;20444;-68
2024/02/07 10:27:36;;;;;;;4.07;2.10;;;11.50;1.00;;;;;;4951127;29;20433;-68
2024/02/07 10:30:07;;;;;;;8.40;2.83;;;11.60;1.00;;;;;;4950041;28;20488;-68
2024/02/07 10:32:33;;;;;;;4.43;2.47;;;11.60;1.00;;;;;;4950634;28;20191;-69
2024/02/07 10:34:59;;;;;;;3.83;2.17;;;11.60;1.00;;;;;;4951197;28;20545;-69
2024/02/07 10:37:25;;;;;;;6.60;1.80;;;11.40;1.00;;;;;;4950753;29;20532;-68
2024/02/07 10:40:00;;;;;;;4.53;2.20;;;11.40;1.00;;;;;;4949036;28;20195;-67
2024/02/07 10:42:26;;;;;;;4.10;2.23;;;11.30;1.00;;;;;;4965560;28;20792;-68
2024/02/07 10:45:13;;;;;;;3.87;2.60;;;11.20;1.00;;;;;;4950361;28;20682;-67
2024/02/07 10:47:39;;;;;;;7.40;2.40;;;11.10;1.00;;;;;;4950943;29;20210;-68
2024/02/07 10:50:08;;;;;;;4.00;2.33;;;10.90;1.00;;;;;;4951156;28;21267;-68
2024/02/07 10:52:34;;;;;;;3.90;2.33;;;10.90;1.00;;;;;;4950194;29;20183;-68
2024/02/07 10:55:00;;;;;;;6.63;3.07;;;11.00;1.00;;;;;;4964676;28;20513;-70
2024/02/07 10:57:41;;;;;;;5.17;3.37;;;11.00;1.00;;;;;;4950795;28;20445;-68
2024/02/07 11:00:07;;;;;;;3.43;1.67;;;11.20;1.00;;;;;;4966032;28;20305;-68
2024/02/07 11:02:33;;;;;;;3.27;1.90;;;11.40;1.00;;;;;;4950770;28;20878;-69
2024/02/07 11:05:01;;;;;;;3.10;2.00;;;11.60;1.00;;;;;;4991095;28;20447;-67
2024/02/07 11:07:27;;;;;;;7.03;3.00;;;11.80;1.00;;;;;;4992205;28;20778;-69
2024/02/07 11:09:54;;;;;;;2.77;1.57;;;11.80;1.00;;;;;;4993727;28;20472;-69
2024/02/07 11:12:19;;;;;;;4.10;2.17;;;11.90;1.00;;;;;;4992383;28;20426;-70
2024/02/07 11:14:47;;;;;;;2.87;1.43;;;11.80;1.00;;;;;;4993015;28;20457;-69
2024/02/07 11:17:16;;;;;;;4.77;2.20;;;11.70;1.00;;;;;;4993069;28;20200;-70
2024/02/07 11:19:47;;;;;;;8.37;1.80;;;12.00;1.00;;;;;;4991999;28;20419;-69
2024/02/07 11:22:27;;;;;;;6.80;2.10;;;11.80;1.00;;;;;;4993142;28;20505;-69
2024/02/07 11:24:54;;;;;;;3.67;1.93;;;11.70;1.00;;;;;;4993187;28;20470;-69
2024/02/07 11:27:20;;;;;;;4.63;1.70;;;11.60;1.00;;;;;;4993063;28;20434;-69
2024/02/07 11:29:46;;;;;;;3.20;1.80;;;11.70;1.00;;;;;;4992872;28;20782;-69
2024/02/07 11:32:13;;;;;;;5.93;2.50;;;11.90;1.00;;;;;;4980790;28;20796;-69
2024/02/07 11:34:39;;;;;;;4.57;2.40;;;12.00;1.00;;;;;;4984938;28;20196;-69
2024/02/07 11:37:08;;;;;;;3.13;2.13;;;11.80;1.00;;;;;;4987397;28;20435;-69
2024/02/07 11:39:42;;;;;;;5.10;1.73;;;12.00;1.00;;;;;;4988633;28;20417;-70
2024/02/07 11:42:15;;;;;;;3.53;2.30;;;12.00;1.00;;;;;;4988404;28;20472;-69
2024/02/07 11:44:55;;;;;;;5.50;1.90;;;12.00;1.00;;;;;;4990623;28;20972;-67
2024/02/07 11:47:25;;;;;;;5.60;2.67;;;12.10;1.00;;;;;;4992461;28;20420;-68
2024/02/07 11:49:56;;;;;;;5.00;1.60;;;12.10;1.00;;;;;;4992922;28;20919;-68
2024/02/07 11:52:28;;;;;;;4.20;2.50;;;12.00;1.00;;;;;;4993107;28;20422;-68
2024/02/07 11:54:59;;;;;;;4.87;2.07;;;11.90;1.00;;;;;;4993015;28;20839;-68
2024/02/07 11:57:25;;;;;;;2.70;2.10;;;11.70;1.00;;;;;;4992853;28;20419;-68
2024/02/07 11:59:51;;;;;;;7.23;2.37;;;11.50;1.00;;;;;;4992173;28;20423;-69
2024/02/07 12:02:18;;;;;;;3.07;1.33;;;11.50;1.00;;;;;;4992900;28;20173;-66
2024/02/07 12:04:44;;;;;;;8.30;2.60;;;11.60;1.00;;;;;;4991210;28;20240;-66
2024/02/07 12:07:12;;;;;;;3.90;1.93;;;11.90;1.00;;;;;;4992147;28;20423;-68
2024/02/07 12:09:37;;;;;;;2.67;1.97;;;12.20;1.00;;;;;;4992935;28;20432;-68
2024/02/07 12:12:03;;;;;;;2.20;1.50;;;12.40;1.00;;;;;;4996531;28;20779;-67
2024/02/07 12:14:29;;;;;;;4.90;3.40;;;12.60;1.00;;;;;;4996072;28;20310;-67
2024/02/07 12:16:54;;;;;;;3.90;1.90;;;12.60;1.00;;;;;;4995726;28;20557;-66
2024/02/07 12:19:21;;;;;;;4.10;2.40;;;12.60;1.00;;;;;;4996315;28;20187;-68
2024/02/07 12:21:47;;;;;;;4.80;2.57;;;12.50;1.00;;;;;;4995878;28;20549;-67
2024/02/07 12:24:14;;;;;;;3.80;2.40;;;12.50;1.00;;;;;;4996241;28;20439;-67
2024/02/07 12:26:40;;;;;;;2.87;2.03;;;12.60;1.00;;;;;;4994678;28;20176;-66
2024/02/07 12:29:06;;;;;;;3.87;1.50;;;12.80;1.00;;;;;;4996227;28;20791;-67
2024/02/07 12:31:32;;;;;;;6.43;2.67;;;12.90;1.00;;;;;;4996321;28;20176;-67
2024/02/07 12:33:57;;;;;;;4.07;2.30;;;12.90;1.00;;;;;;4996004;28;20438;-67
2024/02/07 12:36:23;;;;;;;5.83;2.60;;;12.90;1.00;;;;;;4995075;28;20489;-67
2024/02/07 12:38:49;;;;;;;4.50;2.60;;;13.00;1.00;;;;;;4996797;28;20180;-67
2024/02/07 12:41:15;;;;;;;5.30;2.47;;;13.10;1.00;;;;;;5004679;28;20177;-67
2024/02/07 12:43:40;;;;;;;5.23;3.20;;;13.30;1.00;;;;;;5004617;28;20176;-67
2024/02/07 12:46:06;;;;;;;2.93;1.60;;;13.20;1.00;;;;;;4998854;28;20423;-66
2024/02/07 12:48:34;;;;;;;3.40;2.30;;;13.10;1.00;;;;;;4997960;28;20188;-67
2024/02/07 12:51:02;;;;;;;3.40;1.93;;;13.20;1.00;;;;;;4996935;28;20194;-67
2024/02/07 12:53:28;;;;;;;7.63;1.90;;;13.20;1.00;;;;;;4996747;28;20454;-68
2024/02/07 12:55:54;;;;;;;3.47;2.03;;;13.30;1.00;;;;;;4995197;28;20690;-68
2024/02/07 12:58:19;;;;;;;4.40;2.67;;;13.20;1.00;;;;;;4996206;28;20317;-67
2024/02/07 13:00:45;;;;;;;2.80;1.77;;;13.20;1.00;;;;;;4995863;28;20185;-67
2024/02/07 13:03:11;;;;;;;6.87;2.43;;;13.00;1.00;;;;;;4994543;28;20201;-66
2024/02/07 13:05:39;;;;;;;3.03;1.80;;;12.80;1.00;;;;;;4995866;28;20223;-69
2024/02/07 13:08:05;;;;;;;4.17;2.17;;;12.80;1.00;;;;;;4995624;28;20417;-67
2024/02/07 13:10:31;;;;;;;5.00;1.80;;;12.90;1.00;;;;;;4995710;28;20408;-66
2024/02/07 13:12:56;;;;;;;2.97;1.47;;;13.30;1.00;;;;;;4995199;28;20418;-66
2024/02/07 13:15:22;;;;;;;3.63;1.97;;;13.20;1.00;;;;;;5034184;22;20503;-67
2024/02/07 13:17:48;;;;;;;4.40;1.50;;;13.10;1.00;;;;;;5033019;28;20178;-66
2024/02/07 13:20:15;;;;;;;2.10;1.33;;;13.10;1.00;;;;;;5033222;28;20522;-66
2024/02/07 13:22:41;;;;;;;5.60;2.57;;;13.00;1.00;;;;;;5034750;28;20429;-67
2024/02/07 13:25:11;;;;;;;3.70;1.77;;;12.80;1.00;;;;;;5033102;28;20473;-67
2024/02/07 13:27:38;;;;;;;3.77;1.60;;;13.10;1.00;;;;;;5034470;28;20402;-66
2024/02/07 13:30:05;;;;;;;2.77;1.60;;;12.70;1.00;;;;;;5049326;28;20417;-67
2024/02/07 13:32:31;;;;;;;4.63;2.00;;;12.50;1.00;;;;;;5034220;28;20421;-67
2024/02/07 13:34:57;;;;;;;6.93;1.67;;;12.60;1.00;;;;;;5051131;28;20972;-68
2024/02/07 13:37:22;;;;;;;3.20;1.77;;;12.70;1.00;;;;;;5035111;28;20638;-67
2024/02/07 13:39:48;;;;;;;5.97;1.40;;;12.50;1.00;;;;;;5033819;28;20574;-67
2024/02/07 13:42:14;;;;;;;2.67;1.60;;;12.40;1.00;;;;;;5034926;28;20581;-68
2024/02/07 13:44:39;;;;;;;3.13;1.47;;;12.40;1.00;;;;;;5050660;28;20522;-66
2024/02/07 13:47:06;;;;;;;2.37;1.37;;;12.20;1.00;;;;;;5035444;28;20713;-67
2024/02/07 13:49:31;;;;;;;2.43;1.33;;;12.40;1.00;;;;;;5034632;28;20553;-67
2024/02/07 13:51:59;;;;;;;4.13;1.60;;;12.40;1.00;;;;;;5035663;28;20416;-66
2024/02/07 13:54:24;;;;;;;3.50;1.70;;;12.50;1.00;;;;;;5036114;28;20549;-66
2024/02/07 13:56:50;;;;;;;3.00;1.37;;;12.70;1.00;;;;;;5034686;28;20471;-67
2024/02/07 13:59:15;;;;;;;4.70;2.10;;;12.70;1.00;;;;;;5034602;28;20172;-66
2024/02/07 14:01:41;;;;;;;3.17;1.90;;;12.60;1.00;;;;;;5033968;28;20176;-67
2024/02/07 14:04:07;;;;;;;2.10;1.30;;;12.60;1.00;;;;;;5033808;28;20192;-64
2024/02/07 14:06:32;;;;;;;3.87;2.20;;;12.40;1.00;;;;;;5033530;28;20237;-66
2024/02/07 14:09:01;;;;;;;2.53;2.20;;;12.30;1.00;;;;;;5033267;28;20416;-66
2024/02/07 14:11:27;;;;;;;3.27;1.57;;;12.20;1.00;;;;;;5031138;28;20183;-70